Time;durP1;ratioP1;P1;durP2;ratioP2;P2;SDS_P1;SDS_P2;PMS_P1;PMS_P2;Temp;Humidity;BMP_temperature;BMP_pressure;BME280_temperature;BME280_humidity;BME280_pressure;Samples;Min_cycle;Max_cycle;Signal;HPM_P1;HPM_P2
2024/03/29 00:00:53;;;;;;;37.25;33.75;;;;;;;;;;5050057;28;20048;-58
2024/03/29 00:03:18;;;;;;;37.00;33.42;;;;;;;;;;5048089;28;20418;-58
2024/03/29 00:05:44;;;;;;;36.72;33.22;;;;;;;;;;5046183;28;20037;-56
2024/03/29 00:08:09;;;;;;;32.50;29.67;;;;;;;;;;5047162;28;20818;-56
2024/03/29 00:10:34;;;;;;;36.10;33.10;;;;;;;;;;5047519;28;20064;-58
2024/03/29 00:13:00;;;;;;;38.90;35.50;;;;;;;;;;5035151;28;20021;-51
2024/03/29 00:15:25;;;;;;;34.38;31.13;;;;;;;;;;5049921;28;20049;-54
2024/03/29 00:17:50;;;;;;;36.88;33.42;;;;;;;;;;5045833;28;20024;-54
2024/03/29 00:20:16;;;;;;;35.70;32.10;;;;;;;;;;5030306;28;20072;-58
2024/03/29 00:22:41;;;;;;;38.95;34.50;;;;;;;;;;5029534;28;20025;-53
2024/03/29 00:25:06;;;;;;;33.92;30.50;;;;;;;;;;5031018;28;20133;-58
2024/03/29 00:27:32;;;;;;;33.67;30.35;;;;;;;;;;5028087;28;20061;-59
2024/03/29 00:29:57;;;;;;;32.05;29.10;;;;;;;;;;5029138;28;20017;-59
2024/03/29 00:32:23;;;;;;;34.78;31.42;;;;;;;;;;5029494;28;20355;-54
2024/03/29 00:34:51;;;;;;;32.90;29.75;;;;;;;;;;5029457;28;20061;-54
2024/03/29 00:37:17;;;;;;;35.38;32.10;;;;;;;;;;5029238;28;20099;-57
2024/03/29 00:39:42;;;;;;;33.38;30.02;;;;;;;;;;5029730;28;20479;-53
2024/03/29 00:42:15;;;;;;;39.17;35.53;;;;;;;;;;5034420;28;20467;-57
2024/03/29 00:44:40;;;;;;;34.85;31.67;;;;;;;;;;5045920;28;20086;-55
2024/03/29 00:47:06;;;;;;;34.53;31.38;;;;;;;;;;5048847;28;20033;-55
2024/03/29 00:49:31;;;;;;;34.13;31.10;;;;;;;;;;5045698;28;20066;-54
2024/03/29 00:51:56;;;;;;;34.83;31.77;;;;;;;;;;5049262;28;20055;-58
2024/03/29 00:54:23;;;;;;;34.78;31.48;;;;;;;;;;5035688;28;20070;-58
2024/03/29 00:56:49;;;;;;;34.25;30.90;;;;;;;;;;5029198;28;20471;-57
2024/03/29 00:59:14;;;;;;;33.83;30.52;;;;;;;;;;5029406;28;20032;-55
2024/03/29 01:01:39;;;;;;;36.03;32.40;;;;;;;;;;5028954;28;20509;-58
2024/03/29 01:04:05;;;;;;;35.92;32.47;;;;;;;;;;5028749;28;20025;-59
2024/03/29 01:06:30;;;;;;;32.80;29.63;;;;;;;;;;5029274;28;20344;-54
2024/03/29 01:08:55;;;;;;;31.92;28.98;;;;;;;;;;5031991;28;20564;-56
2024/03/29 01:11:20;;;;;;;33.88;30.42;;;;;;;;;;5030181;28;20026;-57
2024/03/29 01:13:46;;;;;;;33.38;30.25;;;;;;;;;;5046734;28;20043;-58
2024/03/29 01:16:11;;;;;;;30.17;27.25;;;;;;;;;;5048548;28;20044;-53
2024/03/29 01:18:36;;;;;;;31.60;28.48;;;;;;;;;;5046665;28;20467;-56
2024/03/29 01:21:01;;;;;;;33.83;30.48;;;;;;;;;;5048269;28;20021;-57
2024/03/29 01:23:27;;;;;;;31.48;28.42;;;;;;;;;;5041629;28;20047;-53
2024/03/29 01:25:52;;;;;;;29.83;26.95;;;;;;;;;;5035210;28;20357;-55
2024/03/29 01:28:18;;;;;;;32.53;29.25;;;;;;;;;;5042164;28;20022;-58
2024/03/29 01:30:43;;;;;;;28.42;25.65;;;;;;;;;;5028631;28;20029;-55
2024/03/29 01:33:08;;;;;;;33.53;30.15;;;;;;;;;;5029065;28;20041;-56
2024/03/29 01:35:33;;;;;;;32.38;29.17;;;;;;;;;;5048265;28;20462;-58
2024/03/29 01:37:59;;;;;;;29.88;26.98;;;;;;;;;;5046694;28;20017;-56
2024/03/29 01:40:24;;;;;;;29.08;25.98;;;;;;;;;;5048146;28;20016;-55
2024/03/29 01:42:53;;;;;;;32.60;29.15;;;;;;;;;;5047021;28;20025;-57
2024/03/29 01:45:18;;;;;;;29.33;26.52;;;;;;;;;;5031109;28;20044;-56
2024/03/29 01:47:44;;;;;;;37.33;31.08;;;;;;;;;;5047005;28;20494;-57
2024/03/29 01:50:09;;;;;;;30.15;27.10;;;;;;;;;;5045890;28;20056;-54
2024/03/29 01:52:34;;;;;;;31.08;26.85;;;;;;;;;;5048055;28;20055;-58
2024/03/29 01:55:00;;;;;;;30.13;27.15;;;;;;;;;;5044472;28;20033;-59
2024/03/29 01:57:25;;;;;;;26.10;23.33;;;;;;;;;;5046987;28;20028;-55
2024/03/29 01:59:51;;;;;;;34.28;30.77;;;;;;;;;;5045679;28;20108;-54
2024/03/29 02:02:17;;;;;;;26.05;23.40;;;;;;;;;;5047731;28;20523;-58
2024/03/29 02:04:43;;;;;;;26.20;23.58;;;;;;;;;;5031933;28;20028;-56
2024/03/29 02:07:08;;;;;;;27.63;24.98;;;;;;;;;;5027481;28;20017;-53
2024/03/29 02:09:33;;;;;;;27.73;24.75;;;;;;;;;;5030532;28;20033;-55
2024/03/29 02:11:59;;;;;;;26.45;23.88;;;;;;;;;;5027737;28;20542;-58
2024/03/29 02:14:24;;;;;;;26.90;23.13;;;;;;;;;;5030777;28;20029;-55
2024/03/29 02:16:49;;;;;;;26.33;23.75;;;;;;;;;;5034686;28;20051;-55
2024/03/29 02:19:14;;;;;;;27.50;24.75;;;;;;;;;;5035679;28;20037;-56
2024/03/29 02:21:42;;;;;;;27.80;23.73;;;;;;;;;;5040979;28;20032;-56
2024/03/29 02:24:08;;;;;;;25.90;23.20;;;;;;;;;;5045046;28;20052;-57
2024/03/29 02:26:36;;;;;;;27.77;23.73;;;;;;;;;;5047350;28;20024;-58
2024/03/29 02:29:02;;;;;;;27.40;24.48;;;;;;;;;;5044809;28;20020;-52
2024/03/29 02:31:27;;;;;;;27.52;24.33;;;;;;;;;;5046871;28;20133;-53
2024/03/29 02:33:52;;;;;;;26.48;23.77;;;;;;;;;;5037975;28;20514;-57
2024/03/29 02:36:18;;;;;;;29.33;26.15;;;;;;;;;;5027435;28;20483;-58
2024/03/29 02:38:43;;;;;;;25.30;22.52;;;;;;;;;;5027403;28;20522;-55
2024/03/29 02:41:08;;;;;;;27.85;24.90;;;;;;;;;;5027155;28;20103;-55
2024/03/29 02:43:33;;;;;;;26.85;24.23;;;;;;;;;;5026704;28;20151;-58
2024/03/29 02:45:59;;;;;;;27.65;24.85;;;;;;;;;;5038918;28;20096;-57
2024/03/29 02:48:24;;;;;;;25.20;21.88;;;;;;;;;;5041651;28;20507;-49
2024/03/29 02:50:49;;;;;;;27.65;24.25;;;;;;;;;;5027351;28;20013;-58
2024/03/29 02:53:15;;;;;;;26.77;24.02;;;;;;;;;;5028652;28;20447;-58
2024/03/29 02:55:41;;;;;;;23.13;19.77;;;;;;;;;;5026863;28;20036;-55
2024/03/29 02:58:06;;;;;;;26.20;22.63;;;;;;;;;;5030627;28;20017;-55
2024/03/29 03:00:31;;;;;;;23.02;20.60;;;;;;;;;;5034686;28;20031;-57
2024/03/29 03:02:57;;;;;;;26.13;23.38;;;;;;;;;;5045237;28;20544;-58
2024/03/29 03:05:22;;;;;;;23.50;20.95;;;;;;;;;;5043268;28;20028;-53
2024/03/29 03:13:15;;;;;;;27.05;23.63;;;;;;;;;;5028585;28;20048;-51
2024/03/29 03:15:40;;;;;;;27.80;24.98;;;;;;;;;;5036547;28;20048;-57
2024/03/29 03:18:06;;;;;;;24.65;22.25;;;;;;;;;;5030755;28;20103;-58
2024/03/29 03:20:32;;;;;;;26.02;23.50;;;;;;;;;;5026657;28;20026;-54
2024/03/29 03:22:58;;;;;;;26.35;23.85;;;;;;;;;;5031979;28;20036;-54
2024/03/29 03:25:24;;;;;;;27.73;24.95;;;;;;;;;;5031736;28;20032;-55
2024/03/29 03:27:49;;;;;;;28.98;25.10;;;;;;;;;;5045590;28;20033;-58
2024/03/29 03:30:15;;;;;;;37.53;33.90;;;;;;;;;;5036064;28;20029;-58
2024/03/29 03:32:40;;;;;;;29.30;25.17;;;;;;;;;;5044752;28;20035;-56
2024/03/29 03:35:05;;;;;;;30.20;27.25;;;;;;;;;;5044231;28;20033;-57
2024/03/29 03:37:31;;;;;;;29.50;26.63;;;;;;;;;;5043506;28;20083;-58
2024/03/29 03:39:56;;;;;;;24.73;22.38;;;;;;;;;;5044300;28;20078;-52
2024/03/29 03:42:22;;;;;;;28.70;25.77;;;;;;;;;;5036981;28;20506;-57
2024/03/29 03:44:47;;;;;;;25.40;22.60;;;;;;;;;;5026554;28;20348;-52
2024/03/29 03:47:12;;;;;;;30.70;25.70;;;;;;;;;;5026427;28;20079;-56
2024/03/29 03:49:38;;;;;;;29.08;23.25;;;;;;;;;;5025792;28;20026;-58
2024/03/29 03:52:03;;;;;;;27.00;24.27;;;;;;;;;;5025621;28;20372;-58
2024/03/29 03:54:29;;;;;;;26.70;23.95;;;;;;;;;;5040396;28;20503;-57
2024/03/29 03:56:54;;;;;;;30.33;27.30;;;;;;;;;;5045881;28;20536;-54
2024/03/29 03:59:19;;;;;;;28.60;25.80;;;;;;;;;;5033889;28;20578;-56
2024/03/29 04:01:45;;;;;;;30.27;27.65;;;;;;;;;;5026037;28;20075;-58
2024/03/29 04:04:10;;;;;;;29.25;26.30;;;;;;;;;;5035298;28;20033;-55
2024/03/29 04:06:35;;;;;;;32.20;29.15;;;;;;;;;;5044061;28;20538;-57
2024/03/29 04:09:01;;;;;;;32.88;29.83;;;;;;;;;;5043651;28;20025;-57
2024/03/29 04:11:27;;;;;;;30.45;27.77;;;;;;;;;;5043567;28;20755;-54
2024/03/29 04:13:52;;;;;;;32.75;29.55;;;;;;;;;;5043825;28;20775;-56
2024/03/29 04:16:17;;;;;;;31.77;28.45;;;;;;;;;;5041141;28;20300;-55
2024/03/29 04:18:42;;;;;;;33.65;30.33;;;;;;;;;;5025922;28;20025;-55
2024/03/29 04:21:08;;;;;;;31.80;28.95;;;;;;;;;;5060133;28;20037;-58
2024/03/29 04:23:33;;;;;;;30.98;27.98;;;;;;;;;;5046614;28;20056;-58
2024/03/29 04:25:59;;;;;;;31.65;28.55;;;;;;;;;;5047133;28;20025;-55
2024/03/29 04:28:25;;;;;;;31.02;28.15;;;;;;;;;;5046376;28;20541;-57
2024/03/29 04:30:53;;;;;;;34.40;31.25;;;;;;;;;;5049212;28;20053;-54
2024/03/29 04:33:19;;;;;;;33.80;30.88;;;;;;;;;;5040858;28;20021;-59
2024/03/29 04:36:10;;;;;;;34.95;31.42;;;;;;;;;;5029346;28;20056;-57
2024/03/29 04:38:35;;;;;;;30.55;27.65;;;;;;;;;;4992940;28;20038;-57
2024/03/29 04:41:01;;;;;;;33.85;30.88;;;;;;;;;;5006527;28;20075;-57
2024/03/29 04:43:27;;;;;;;32.55;29.60;;;;;;;;;;5005648;28;20682;-53
2024/03/29 04:46:10;;;;;;;34.83;31.75;;;;;;;;;;5005815;28;20157;-55
2024/03/29 04:48:35;;;;;;;37.75;34.40;;;;;;;;;;5005882;28;20112;-57
2024/03/29 04:51:01;;;;;;;37.20;34.00;;;;;;;;;;5005681;28;20551;-58
2024/03/29 04:53:26;;;;;;;33.47;30.55;;;;;;;;;;5005640;28;20116;-55
2024/03/29 04:55:55;;;;;;;33.13;29.92;;;;;;;;;;5006291;28;20038;-56
2024/03/29 04:58:21;;;;;;;31.55;28.75;;;;;;;;;;5005469;28;20029;-55
2024/03/29 05:00:46;;;;;;;34.78;31.45;;;;;;;;;;5005563;28;20033;-55
2024/03/29 05:03:11;;;;;;;34.80;31.42;;;;;;;;;;5005216;28;20554;-55
2024/03/29 05:05:37;;;;;;;32.28;29.33;;;;;;;;;;5006220;28;20065;-58
2024/03/29 05:08:02;;;;;;;33.22;30.30;;;;;;;;;;5005244;28;20444;-51
2024/03/29 05:10:27;;;;;;;32.33;29.48;;;;;;;;;;4987906;28;20071;-56
2024/03/29 05:12:54;;;;;;;35.33;32.00;;;;;;;;;;5003706;28;20065;-58
2024/03/29 05:15:19;;;;;;;36.80;33.33;;;;;;;;;;5023300;28;20094;-56
2024/03/29 05:17:45;;;;;;;36.97;33.03;;;;;;;;;;5047146;28;20025;-58
2024/03/29 05:20:10;;;;;;;30.75;27.90;;;;;;;;;;5028232;28;20436;-58
2024/03/29 05:22:35;;;;;;;33.88;30.30;;;;;;;;;;5028349;28;20040;-58
2024/03/29 05:25:01;;;;;;;32.60;29.73;;;;;;;;;;5027683;28;20128;-58
2024/03/29 05:27:27;;;;;;;33.42;29.92;;;;;;;;;;5044479;28;20032;-58
2024/03/29 05:29:52;;;;;;;29.77;26.88;;;;;;;;;;5034746;28;20029;-54
2024/03/29 05:32:18;;;;;;;29.40;26.48;;;;;;;;;;5028392;28;20021;-54
2024/03/29 05:34:44;;;;;;;33.45;30.13;;;;;;;;;;5043710;28;20065;-58
2024/03/29 05:37:09;;;;;;;31.67;28.50;;;;;;;;;;5048195;28;20487;-55
2024/03/29 05:39:34;;;;;;;32.92;29.70;;;;;;;;;;5045398;28;20438;-54
2024/03/29 05:41:59;;;;;;;30.35;27.60;;;;;;;;;;5048214;28;20052;-57
2024/03/29 05:44:25;;;;;;;30.50;27.50;;;;;;;;;;5034646;28;20075;-53
2024/03/29 05:46:50;;;;;;;33.17;29.85;;;;;;;;;;5045132;28;20507;-57
2024/03/29 05:49:16;;;;;;;32.50;28.85;;;;;;;;;;5045505;28;20048;-54
2024/03/29 05:51:42;;;;;;;35.90;28.60;;;;;;;;;;5047645;28;20420;-57
2024/03/29 05:54:07;;;;;;;30.90;26.05;;;;;;;;;;5041950;28;20032;-55
2024/03/29 05:56:32;;;;;;;27.02;22.23;;;;;;;;;;5037673;28;20333;-55
2024/03/29 05:58:57;;;;;;;27.52;24.73;;;;;;;;;;5035086;28;20033;-54
2024/03/29 06:01:23;;;;;;;28.10;24.13;;;;;;;;;;5061760;28;20410;-58
2024/03/29 06:03:51;;;;;;;29.13;25.10;;;;;;;;;;5044918;28;20166;-55
2024/03/29 06:06:17;;;;;;;27.73;25.10;;;;;;;;;;5047469;28;20024;-57
2024/03/29 06:08:45;;;;;;;25.35;22.67;;;;;;;;;;5041963;28;20539;-59
2024/03/29 06:11:11;;;;;;;27.42;24.58;;;;;;;;;;5027871;28;20021;-57
2024/03/29 06:19:08;;;;;;;29.90;26.60;;;;;;;;;;5036565;28;20090;-55
2024/03/29 06:21:38;;;;;;;29.60;26.48;;;;;;;;;;5028634;28;20021;-58
2024/03/29 06:24:08;;;;;;;27.48;24.55;;;;;;;;;;5027173;28;20061;-57
2024/03/29 06:26:33;;;;;;;;;;;;;;;;;;5039880;28;20028;-53
2024/03/29 06:28:58;;;;;;;25.13;22.63;;;;;;;;;;5037418;28;19909;-56
2024/03/29 06:31:23;;;;;;;26.98;24.15;;;;;;;;;;5027011;28;20255;-56
2024/03/29 06:33:48;;;;;;;29.95;26.70;;;;;;;;;;5027552;28;20456;-57
2024/03/29 06:36:14;;;;;;;28.13;25.02;;;;;;;;;;5027164;28;20075;-58
2024/03/29 06:38:39;;;;;;;25.48;22.85;;;;;;;;;;5026556;28;20430;-53
2024/03/29 06:41:04;;;;;;;30.08;26.77;;;;;;;;;;5026821;28;20018;-54
2024/03/29 06:43:30;;;;;;;29.25;25.85;;;;;;;;;;5029577;28;20060;-57
2024/03/29 06:45:56;;;;;;;27.02;24.25;;;;;;;;;;5045849;28;20108;-59
2024/03/29 06:48:21;;;;;;;27.63;24.55;;;;;;;;;;5041854;28;20025;-57
2024/03/29 06:50:47;;;;;;;30.90;26.25;;;;;;;;;;5025603;28;20021;-57
2024/03/29 06:53:12;;;;;;;28.30;25.23;;;;;;;;;;5027955;28;20110;-55
2024/03/29 06:55:37;;;;;;;32.10;25.27;;;;;;;;;;5046446;28;20104;-55
2024/03/29 06:58:03;;;;;;;30.17;26.77;;;;;;;;;;5044565;28;20025;-58
2024/03/29 07:00:28;;;;;;;26.50;23.52;;;;;;;;;;5045639;28;20095;-57
2024/03/29 07:02:53;;;;;;;29.15;24.92;;;;;;;;;;5045187;28;20583;-53
2024/03/29 07:05:18;;;;;;;30.20;26.27;;;;;;;;;;5045527;28;20032;-58
2024/03/29 07:07:46;;;;;;;39.30;28.25;;;;;;;;;;5058598;28;20033;-57
2024/03/29 07:10:12;;;;;;;30.33;24.10;;;;;;;;;;5039818;28;20020;-59
2024/03/29 07:12:37;;;;;;;31.08;25.08;;;;;;;;;;5046139;28;20116;-52
2024/03/29 07:15:03;;;;;;;25.40;22.77;;;;;;;;;;5026647;28;20044;-56
2024/03/29 07:17:28;;;;;;;26.95;24.13;;;;;;;;;;5026293;28;20088;-55
2024/03/29 07:19:53;;;;;;;24.90;20.92;;;;;;;;;;5042230;28;20025;-58
2024/03/29 07:22:19;;;;;;;26.42;23.38;;;;;;;;;;5045310;28;20027;-58
2024/03/29 07:24:45;;;;;;;32.72;25.30;;;;;;;;;;5027837;28;20304;-59
2024/03/29 07:27:12;;;;;;;29.25;24.27;;;;;;;;;;5025987;28;20530;-59
2024/03/29 07:29:37;;;;;;;28.73;23.33;;;;;;;;;;5024603;28;20460;-56
2024/03/29 07:32:03;;;;;;;27.83;24.88;;;;;;;;;;5028323;28;20146;-57
2024/03/29 07:34:28;;;;;;;24.67;22.08;;;;;;;;;;5040713;28;20037;-56
2024/03/29 07:36:53;;;;;;;29.42;26.58;;;;;;;;;;5026289;28;20121;-55
2024/03/29 07:39:20;;;;;;;29.20;26.05;;;;;;;;;;5036507;28;20036;-58
2024/03/29 07:41:45;;;;;;;30.15;24.45;;;;;;;;;;5031687;28;20270;-56
2024/03/29 07:44:10;;;;;;;27.23;22.70;;;;;;;;;;5026517;28;20229;-52
2024/03/29 07:46:40;;;;;;;27.92;23.92;;;;;;;;;;5026581;28;20022;-57
2024/03/29 07:49:05;;;;;;;24.65;22.30;;;;;;;;;;5036533;28;20112;-54
2024/03/29 07:51:31;;;;;;;23.83;21.55;;;;;;;;;;5025937;28;20445;-56
2024/03/29 07:53:56;;;;;;;25.77;22.95;;;;;;;;;;5033585;28;20055;-59
2024/03/29 07:56:22;;;;;;;24.15;21.63;;;;;;;;;;5047410;28;20502;-56
2024/03/29 07:58:54;;;;;;;28.63;25.30;;;;;;;;;;5046629;28;20031;-52
2024/03/29 08:01:20;;;;;;;26.85;23.95;;;;;;;;;;5049916;28;20048;-55
2024/03/29 08:03:45;;;;;;;31.10;25.83;;;;;;;;;;5047673;28;20056;-53
2024/03/29 08:06:10;;;;;;;29.38;25.17;;;;;;;;;;5048583;28;20023;-54
2024/03/29 08:08:35;;;;;;;32.15;28.88;;;;;;;;;;5047846;28;20394;-57
2024/03/29 08:11:01;;;;;;;27.65;24.63;;;;;;;;;;5048003;28;20013;-59
2024/03/29 08:13:26;;;;;;;27.40;24.58;;;;;;;;;;5036044;28;20503;-55
2024/03/29 08:15:58;;;;;;;31.45;26.08;;;;;;;;;;5046218;28;20021;-58
2024/03/29 08:18:24;;;;;;;25.70;23.08;;;;;;;;;;5047894;28;20025;-57
2024/03/29 08:20:49;;;;;;;29.52;25.67;;;;;;;;;;5038809;28;20099;-51
2024/03/29 08:23:14;;;;;;;26.85;24.10;;;;;;;;;;5037850;28;20483;-56
2024/03/29 08:25:40;;;;;;;27.65;24.77;;;;;;;;;;5039979;28;20029;-57
2024/03/29 08:28:05;;;;;;;30.13;25.52;;;;;;;;;;5044975;28;20107;-55
2024/03/29 08:30:34;;;;;;;26.25;23.02;;;;;;;;;;5044750;28;20639;-57
2024/03/29 08:33:03;;;;;;;30.00;26.10;;;;;;;;;;5035229;28;20029;-57
2024/03/29 08:35:32;;;;;;;24.60;22.13;;;;;;;;;;5035181;28;20033;-56
2024/03/29 08:37:57;;;;;;;31.60;28.50;;;;;;;;;;5035055;28;20124;-57
2024/03/29 08:40:24;;;;;;;28.05;25.05;;;;;;;;;;5047971;28;20109;-58
2024/03/29 08:42:49;;;;;;;28.15;24.75;;;;;;;;;;5047764;28;20029;-57
2024/03/29 08:45:14;;;;;;;28.92;24.17;;;;;;;;;;5046279;28;20025;-57
2024/03/29 08:47:40;;;;;;;33.88;27.33;;;;;;;;;;5048513;28;20017;-58
2024/03/29 08:50:05;;;;;;;27.92;23.20;;;;;;;;;;5030631;28;20022;-56
2024/03/29 08:52:30;;;;;;;24.33;21.88;;;;;;;;;;5037987;28;20225;-57
2024/03/29 08:54:56;;;;;;;26.10;23.40;;;;;;;;;;5046620;28;20041;-58
2024/03/29 08:57:21;;;;;;;25.83;23.05;;;;;;;;;;5048971;28;20025;-55
2024/03/29 08:59:46;;;;;;;25.27;22.65;;;;;;;;;;5035952;28;20420;-56
2024/03/29 09:02:12;;;;;;;28.63;25.48;;;;;;;;;;5048790;28;20082;-57
2024/03/29 09:04:37;;;;;;;26.55;23.80;;;;;;;;;;5034826;28;20060;-54
2024/03/29 09:07:03;;;;;;;25.63;23.10;;;;;;;;;;5034881;28;20415;-55
2024/03/29 09:09:29;;;;;;;25.98;23.42;;;;;;;;;;5040493;28;20025;-58
2024/03/29 09:11:54;;;;;;;30.05;25.98;;;;;;;;;;5047113;28;20024;-57
2024/03/29 09:14:20;;;;;;;22.27;19.08;;;;;;;;;;5041533;28;20082;-57
2024/03/29 09:16:47;;;;;;;24.13;20.83;;;;;;;;;;5031227;28;20052;-56
2024/03/29 09:19:12;;;;;;;27.58;22.30;;;;;;;;;;5044928;28;20040;-52
2024/03/29 09:21:37;;;;;;;28.27;23.55;;;;;;;;;;5044432;28;20017;-56
2024/03/29 09:24:03;;;;;;;24.52;21.98;;;;;;;;;;5045941;28;20570;-57
2024/03/29 09:26:28;;;;;;;21.60;19.30;;;;;;;;;;5048205;28;20017;-55
2024/03/29 09:28:53;;;;;;;25.50;22.92;;;;;;;;;;5045814;28;20086;-56
2024/03/29 09:31:19;;;;;;;28.75;23.05;;;;;;;;;;5047845;28;20029;-59
2024/03/29 09:33:47;;;;;;;23.40;20.95;;;;;;;;;;5044314;28;20064;-58
2024/03/29 09:36:12;;;;;;;25.70;19.20;;;;;;;;;;5048365;28;20067;-55
2024/03/29 09:38:37;;;;;;;25.55;20.55;;;;;;;;;;5040369;28;20543;-54
2024/03/29 09:41:10;;;;;;;27.50;22.83;;;;;;;;;;5028361;28;20029;-58
2024/03/29 09:43:35;;;;;;;24.73;22.17;;;;;;;;;;5025651;28;20488;-57
2024/03/29 09:46:01;;;;;;;27.77;23.35;;;;;;;;;;5027961;28;20032;-55
2024/03/29 09:48:26;;;;;;;27.92;25.27;;;;;;;;;;5037567;28;20439;-55
2024/03/29 09:50:54;;;;;;;22.98;19.83;;;;;;;;;;5045023;28;20068;-58
2024/03/29 09:53:20;;;;;;;24.60;22.02;;;;;;;;;;5044087;28;20025;-56
2024/03/29 09:55:45;;;;;;;28.27;23.27;;;;;;;;;;5044666;28;20021;-56
2024/03/29 09:58:11;;;;;;;26.92;23.58;;;;;;;;;;5043799;28;20040;-57
2024/03/29 10:00:36;;;;;;;25.48;21.73;;;;;;;;;;5044138;28;20044;-53
2024/03/29 10:03:03;;;;;;;26.42;22.40;;;;;;;;;;5043718;28;20505;-59
2024/03/29 10:05:29;;;;;;;23.50;21.02;;;;;;;;;;5044625;28;20107;-56
2024/03/29 10:07:54;;;;;;;27.25;22.52;;;;;;;;;;5043712;28;20473;-57
2024/03/29 10:10:19;;;;;;;27.08;21.92;;;;;;;;;;5028999;28;20022;-52
2024/03/29 10:12:45;;;;;;;35.38;25.80;;;;;;;;;;5027319;28;20033;-57
2024/03/29 10:15:18;;;;;;;23.70;20.92;;;;;;;;;;5043250;28;20064;-58
2024/03/29 10:17:48;;;;;;;32.55;26.27;;;;;;;;;;5011174;28;20465;-57
2024/03/29 10:20:15;;;;;;;28.55;25.52;;;;;;;;;;5031329;28;20124;-57
2024/03/29 10:22:44;;;;;;;34.92;26.98;;;;;;;;;;5037772;28;20025;-54
2024/03/29 10:25:09;;;;;;;;;;;;;;;;;;5028860;28;20060;-55
2024/03/29 10:27:35;;;;;;;28.13;23.77;;;;;;;;;;5044435;28;19904;-57
2024/03/29 10:30:00;;;;;;;30.67;24.83;;;;;;;;;;5042759;28;20768;-58
2024/03/29 10:32:25;;;;;;;25.00;22.27;;;;;;;;;;5029721;28;20056;-55
2024/03/29 10:34:51;;;;;;;26.45;23.65;;;;;;;;;;5040796;28;20033;-57
2024/03/29 10:37:19;;;;;;;30.48;25.45;;;;;;;;;;5040839;28;20132;-58
2024/03/29 10:39:44;;;;;;;27.42;24.60;;;;;;;;;;5041199;28;20029;-56
2024/03/29 10:42:11;;;;;;;28.10;25.15;;;;;;;;;;5047100;28;20100;-52
2024/03/29 10:44:37;;;;;;;26.95;22.55;;;;;;;;;;5035862;28;20025;-58
2024/03/29 10:47:03;;;;;;;32.13;21.65;;;;;;;;;;5034134;28;20116;-58
2024/03/29 10:49:29;;;;;;;28.00;21.77;;;;;;;;;;5028477;28;21200;-54
2024/03/29 10:51:57;;;;;;;27.08;24.17;;;;;;;;;;5029445;28;20022;-58
2024/03/29 10:54:22;;;;;;;29.80;23.58;;;;;;;;;;5034284;28;20313;-55
2024/03/29 10:56:53;;;;;;;26.15;23.45;;;;;;;;;;5045504;28;20774;-54
2024/03/29 10:59:18;;;;;;;39.63;27.50;;;;;;;;;;5033604;28;20059;-57
2024/03/29 11:01:46;;;;;;;37.13;25.27;;;;;;;;;;5026702;28;20029;-58
2024/03/29 11:04:20;;;;;;;26.15;22.17;;;;;;;;;;5036404;28;20029;-59
2024/03/29 11:06:47;;;;;;;29.90;24.48;;;;;;;;;;5046799;28;20064;-54
2024/03/29 11:09:13;;;;;;;25.80;23.05;;;;;;;;;;5052229;28;20116;-59
2024/03/29 11:11:41;;;;;;;35.15;26.60;;;;;;;;;;5028544;28;20025;-56
2024/03/29 11:14:07;;;;;;;31.15;26.13;;;;;;;;;;5035309;28;20036;-53
2024/03/29 11:16:33;;;;;;;35.50;25.65;;;;;;;;;;5037891;28;20029;-59
2024/03/29 11:18:59;;;;;;;30.33;25.08;;;;;;;;;;5030124;28;20326;-55
2024/03/29 11:21:28;;;;;;;35.65;32.17;;;;;;;;;;5031523;28;20095;-55
2024/03/29 11:23:54;;;;;;;34.50;29.27;;;;;;;;;;5018511;28;20131;-54
2024/03/29 11:26:19;;;;;;;38.40;32.03;;;;;;;;;;4986629;28;20034;-58
2024/03/29 11:28:48;;;;;;;43.83;31.42;;;;;;;;;;5024310;28;20053;-52
2024/03/29 11:31:14;;;;;;;50.38;37.60;;;;;;;;;;5020840;28;20045;-52
2024/03/29 11:33:48;;;;;;;40.22;34.78;;;;;;;;;;5023369;28;20317;-57
2024/03/29 11:36:16;;;;;;;39.22;30.30;;;;;;;;;;5025338;28;20090;-55
2024/03/29 11:38:43;;;;;;;41.40;36.67;;;;;;;;;;5023904;28;20029;-54
2024/03/29 11:41:15;;;;;;;50.33;36.25;;;;;;;;;;5023097;28;20277;-56
2024/03/29 11:43:42;;;;;;;48.50;36.40;;;;;;;;;;5025124;28;20473;-51
2024/03/29 11:46:09;;;;;;;43.45;29.00;;;;;;;;;;5025802;28;20014;-60
2024/03/29 11:48:35;;;;;;;35.95;32.13;;;;;;;;;;5047504;28;20032;-57
2024/03/29 11:51:01;;;;;;;34.60;31.33;;;;;;;;;;5032976;28;20021;-52
2024/03/29 11:53:29;;;;;;;33.95;30.50;;;;;;;;;;5035678;28;20013;-57
2024/03/29 11:55:58;;;;;;;33.58;30.15;;;;;;;;;;5035919;28;20056;-57
2024/03/29 11:58:24;;;;;;;41.65;28.38;;;;;;;;;;5032528;28;20505;-58
2024/03/29 12:00:53;;;;;;;32.85;29.73;;;;;;;;;;5043468;28;20033;-56
2024/03/29 12:03:19;;;;;;;35.80;30.67;;;;;;;;;;5044949;28;20017;-56
2024/03/29 12:05:45;;;;;;;35.97;32.85;;;;;;;;;;5048528;28;20040;-58
2024/03/29 12:08:11;;;;;;;41.30;33.67;;;;;;;;;;5047015;28;20029;-57
2024/03/29 12:10:36;;;;;;;35.22;31.73;;;;;;;;;;5059188;28;20036;-59
2024/03/29 12:13:02;;;;;;;38.05;33.25;;;;;;;;;;5046693;28;20021;-57
2024/03/29 12:15:31;;;;;;;30.67;27.58;;;;;;;;;;5049242;28;20037;-55
2024/03/29 12:18:02;;;;;;;35.70;32.40;;;;;;;;;;5047230;28;20104;-57
2024/03/29 12:20:28;;;;;;;36.78;33.70;;;;;;;;;;5029091;28;20021;-58
2024/03/29 12:22:54;;;;;;;39.40;31.83;;;;;;;;;;5028362;28;20040;-58
2024/03/29 12:25:20;;;;;;;34.90;28.95;;;;;;;;;;5048707;28;20409;-56
2024/03/29 12:27:46;;;;;;;35.90;29.33;;;;;;;;;;5048524;28;20025;-57
2024/03/29 12:30:12;;;;;;;34.13;31.08;;;;;;;;;;5046912;28;20025;-59
2024/03/29 12:32:38;;;;;;;36.10;31.80;;;;;;;;;;5047660;28;20039;-57
2024/03/29 12:35:12;;;;;;;29.42;25.80;;;;;;;;;;5046305;28;20115;-56
2024/03/29 12:37:37;;;;;;;34.40;30.88;;;;;;;;;;5048605;28;20023;-54
2024/03/29 12:40:12;;;;;;;38.40;33.35;;;;;;;;;;5029399;28;20112;-58
2024/03/29 12:42:38;;;;;;;60.03;33.53;;;;;;;;;;5025554;28;20030;-59
2024/03/29 12:45:04;;;;;;;36.08;33.03;;;;;;;;;;5031765;28;20047;-55
2024/03/29 12:47:29;;;;;;;33.20;29.92;;;;;;;;;;5036276;28;20120;-59
2024/03/29 12:49:55;;;;;;;29.15;26.10;;;;;;;;;;5030317;28;20037;-58
2024/03/29 12:52:20;;;;;;;31.90;28.00;;;;;;;;;;5026124;28;20116;-60
2024/03/29 12:54:46;;;;;;;29.23;24.77;;;;;;;;;;5034613;28;20110;-57
2024/03/29 12:57:11;;;;;;;30.77;27.48;;;;;;;;;;5048167;28;20036;-56
2024/03/29 12:59:36;;;;;;;32.72;29.48;;;;;;;;;;5046283;28;20139;-55
2024/03/29 13:02:03;;;;;;;35.65;32.42;;;;;;;;;;5048071;28;20033;-57
2024/03/29 13:04:29;;;;;;;23.67;21.25;;;;;;;;;;5034290;28;20471;-59
2024/03/29 13:06:55;;;;;;;27.00;24.15;;;;;;;;;;5040840;28;20052;-59
2024/03/29 13:09:20;;;;;;;29.77;26.65;;;;;;;;;;5038993;28;20056;-55
2024/03/29 13:11:45;;;;;;;43.35;26.45;;;;;;;;;;5033770;28;20033;-53
2024/03/29 13:14:11;;;;;;;30.25;27.30;;;;;;;;;;5037400;28;20082;-58
2024/03/29 13:16:36;;;;;;;34.17;30.65;;;;;;;;;;5047293;28;20024;-56
2024/03/29 13:19:01;;;;;;;29.90;25.83;;;;;;;;;;5045953;28;20398;-57
2024/03/29 13:21:27;;;;;;;28.83;25.95;;;;;;;;;;5038378;28;20180;-58
2024/03/29 13:23:52;;;;;;;32.72;29.40;;;;;;;;;;5050953;28;20130;-59
2024/03/29 13:26:17;;;;;;;32.85;28.83;;;;;;;;;;5043952;28;20024;-56
2024/03/29 13:28:43;;;;;;;33.80;30.33;;;;;;;;;;5038739;28;20032;-58
2024/03/29 13:31:08;;;;;;;33.92;30.60;;;;;;;;;;5027873;28;20028;-57
2024/03/29 13:33:33;;;;;;;32.58;26.90;;;;;;;;;;5028414;28;20659;-54
2024/03/29 13:35:58;;;;;;;32.42;26.92;;;;;;;;;;5034826;28;20129;-59
2024/03/29 13:38:26;;;;;;;35.47;29.42;;;;;;;;;;5045673;28;20032;-57
2024/03/29 13:40:51;;;;;;;31.70;28.75;;;;;;;;;;5047611;28;20028;-56
2024/03/29 13:43:17;;;;;;;33.58;30.27;;;;;;;;;;5044568;28;20459;-58
2024/03/29 13:45:42;;;;;;;33.85;29.10;;;;;;;;;;5048002;28;20429;-57
2024/03/29 13:48:08;;;;;;;33.90;29.27;;;;;;;;;;5045837;28;20386;-56
2024/03/29 13:50:33;;;;;;;47.90;27.60;;;;;;;;;;5048909;28;20041;-60
2024/03/29 13:52:58;;;;;;;33.30;28.23;;;;;;;;;;5026900;28;20009;-60
2024/03/29 13:55:25;;;;;;;36.38;33.03;;;;;;;;;;5030209;28;20127;-58
2024/03/29 13:57:51;;;;;;;32.97;29.88;;;;;;;;;;5044062;28;20032;-58
2024/03/29 14:00:19;;;;;;;37.90;29.52;;;;;;;;;;5046427;28;20521;-55
2024/03/29 14:02:44;;;;;;;34.63;30.70;;;;;;;;;;5046324;28;20020;-58
2024/03/29 14:05:10;;;;;;;31.27;28.25;;;;;;;;;;5027198;28;20034;-59
2024/03/29 14:07:36;;;;;;;38.28;32.90;;;;;;;;;;5027265;28;20517;-54
2024/03/29 14:10:04;;;;;;;37.08;33.88;;;;;;;;;;5038287;28;20494;-55
2024/03/29 14:12:29;;;;;;;32.72;29.30;;;;;;;;;;5031346;28;20105;-59
2024/03/29 14:14:54;;;;;;;36.47;33.20;;;;;;;;;;5027759;28;20045;-57
2024/03/29 14:17:21;;;;;;;37.65;33.72;;;;;;;;;;5026952;28;20054;-57
2024/03/29 14:19:47;;;;;;;39.08;35.53;;;;;;;;;;5042686;28;20036;-59
2024/03/29 14:22:15;;;;;;;37.13;34.05;;;;;;;;;;5027136;28;20588;-58